createdAt,value
2023-05-02T00:00:17.452Z,3.98
2023-05-02T00:03:03.890Z,4.00
2023-05-02T00:05:30.326Z,4.03
2023-05-02T00:07:56.803Z,4.09
2023-05-02T00:10:23.100Z,4.13
2023-05-02T00:12:49.251Z,4.16
2023-05-02T00:15:15.333Z,4.16
2023-05-02T00:17:41.700Z,4.13
2023-05-02T00:20:08.758Z,4.15
2023-05-02T00:22:35.186Z,4.19
2023-05-02T00:25:02.924Z,4.21
2023-05-02T00:27:29.082Z,4.19
2023-05-02T00:29:55.256Z,4.19
2023-05-02T00:32:21.741Z,4.14
2023-05-02T00:34:48.664Z,4.10
2023-05-02T00:37:15.329Z,4.07
2023-05-02T00:39:44.329Z,4.01
2023-05-02T00:42:10.480Z,3.97
2023-05-02T00:44:36.622Z,3.95
2023-05-02T00:47:03.740Z,3.97
2023-05-02T00:49:30.508Z,4.01
2023-05-02T00:51:56.569Z,4.01
2023-05-02T00:54:22.702Z,4.02
2023-05-02T00:56:49.132Z,4.02
2023-05-02T00:59:15.273Z,4.00
2023-05-02T01:01:41.695Z,3.89
2023-05-02T01:04:08.668Z,3.80
2023-05-02T01:06:36.941Z,3.75
2023-05-02T01:09:07.292Z,3.73
2023-05-02T01:11:34.144Z,3.70
2023-05-02T01:14:00.893Z,3.66
2023-05-02T01:16:29.762Z,3.66
2023-05-02T01:18:55.861Z,3.69
2023-05-02T01:21:23.229Z,3.65
2023-05-02T01:23:49.648Z,3.65
2023-05-02T01:26:17.151Z,3.56
2023-05-02T01:28:44.666Z,3.52
2023-05-02T01:31:14.467Z,3.54
2023-05-02T01:33:41.552Z,3.56
2023-05-02T01:36:07.667Z,3.61
2023-05-02T01:38:36.171Z,3.62
2023-05-02T01:41:04.664Z,3.60
2023-05-02T01:43:31.328Z,3.58
2023-05-02T01:45:57.924Z,3.56
2023-05-02T01:48:24.021Z,3.58
2023-05-02T01:50:50.329Z,3.60
2023-05-02T01:53:16.692Z,3.58
2023-05-02T01:55:42.933Z,3.49
2023-05-02T01:58:11.824Z,3.39
2023-05-02T02:00:38.975Z,3.39
2023-05-02T02:03:06.766Z,3.42
2023-05-02T02:05:32.895Z,3.39
2023-05-02T02:08:01.650Z,3.35
2023-05-02T02:10:28.080Z,3.31
2023-05-02T02:12:54.162Z,3.18
2023-05-02T02:15:20.524Z,3.10
2023-05-02T02:17:47.162Z,3.04
2023-05-02T02:20:13.640Z,2.87
2023-05-02T02:22:39.858Z,2.85
2023-05-02T02:25:07.707Z,2.86
2023-05-02T02:27:33.892Z,2.86
2023-05-02T02:30:01.169Z,2.83
2023-05-02T02:32:27.494Z,2.80
2023-05-02T02:34:54.601Z,2.75
2023-05-02T02:37:20.771Z,2.70
2023-05-02T02:39:47.030Z,2.64
2023-05-02T02:42:13.128Z,2.62
2023-05-02T02:44:39.277Z,2.62
2023-05-02T02:47:05.431Z,2.65
2023-05-02T02:49:31.558Z,2.66
2023-05-02T02:51:57.999Z,2.68
2023-05-02T02:54:27.165Z,2.67
2023-05-02T02:56:53.671Z,2.65
2023-05-02T02:59:19.770Z,2.62
2023-05-02T03:01:45.920Z,2.66
2023-05-02T03:04:12.158Z,2.70
2023-05-02T03:06:38.347Z,2.78
2023-05-02T03:09:04.671Z,2.79
2023-05-02T03:11:30.739Z,2.79
2023-05-02T03:13:56.939Z,2.80
2023-05-02T03:16:23.067Z,2.74
2023-05-02T03:18:49.209Z,2.58
2023-05-02T03:21:15.730Z,2.43
2023-05-02T03:23:41.890Z,2.38
2023-05-02T03:26:08.019Z,2.43
2023-05-02T03:28:34.148Z,2.44
2023-05-02T03:31:00.420Z,2.50
2023-05-02T03:33:26.656Z,2.55
2023-05-02T03:35:52.898Z,2.57
2023-05-02T03:38:19.002Z,2.60
2023-05-02T03:40:45.318Z,2.64
2023-05-02T03:43:11.484Z,2.72
2023-05-02T03:45:37.641Z,2.78
2023-05-02T03:48:03.783Z,2.84
2023-05-02T03:50:30.419Z,2.89
2023-05-02T03:52:56.519Z,2.93
2023-05-02T03:55:22.612Z,3.00
2023-05-02T03:57:48.827Z,3.04
2023-05-02T04:00:15.268Z,3.06
2023-05-02T04:02:41.630Z,3.05
2023-05-02T04:05:07.938Z,3.09
2023-05-02T04:07:34.026Z,3.13
2023-05-02T04:10:00.317Z,3.17
2023-05-02T04:12:26.649Z,3.21
2023-05-02T04:14:52.837Z,3.24
2023-05-02T04:17:19.000Z,3.24
2023-05-02T04:19:45.285Z,3.32
2023-05-02T04:22:11.652Z,3.39
2023-05-02T04:24:37.715Z,3.44
2023-05-02T04:27:03.928Z,3.45
2023-05-02T04:29:30.157Z,3.46
2023-05-02T04:31:56.219Z,3.58
2023-05-02T04:34:22.523Z,3.72
2023-05-02T04:36:48.600Z,3.80
2023-05-02T04:39:14.845Z,3.86
2023-05-02T04:41:42.462Z,4.03
2023-05-02T04:44:08.537Z,4.17
2023-05-02T04:46:34.850Z,4.32
2023-05-02T04:49:01.524Z,4.50
2023-05-02T04:51:28.471Z,4.68
2023-05-02T04:53:54.623Z,4.77
2023-05-02T04:56:21.261Z,4.84
2023-05-02T04:58:47.366Z,4.97
2023-05-02T05:01:13.509Z,5.07
2023-05-02T05:03:39.782Z,5.16
2023-05-02T05:06:05.990Z,5.27
2023-05-02T05:08:33.073Z,5.40
2023-05-02T05:10:59.245Z,5.50
2023-05-02T05:13:25.383Z,5.57
2023-05-02T05:15:51.648Z,5.68
2023-05-02T05:18:18.192Z,5.83
2023-05-02T05:20:44.328Z,5.97
2023-05-02T05:23:10.409Z,6.06
2023-05-02T05:25:36.585Z,6.13
2023-05-02T05:28:02.753Z,6.19
2023-05-02T05:30:30.379Z,6.18
2023-05-02T05:32:58.132Z,6.21
2023-05-02T05:35:24.418Z,6.27
2023-05-02T05:37:50.666Z,6.32
2023-05-02T05:40:17.020Z,6.34
2023-05-02T05:42:43.217Z,6.37
2023-05-02T05:45:09.655Z,6.37
2023-05-02T05:47:35.930Z,6.40
2023-05-02T05:50:02.355Z,6.34
2023-05-02T05:52:28.794Z,6.23
2023-05-02T05:54:55.867Z,6.14
2023-05-02T05:57:22.338Z,6.09
2023-05-02T05:59:48.622Z,6.05
2023-05-02T06:02:15.867Z,6.10
2023-05-02T06:04:42.113Z,6.16
2023-05-02T06:07:08.261Z,6.25
2023-05-02T06:09:34.434Z,6.36
2023-05-02T06:12:01.457Z,6.46
2023-05-02T06:14:27.549Z,6.57
2023-05-02T06:16:53.749Z,6.68
2023-05-02T06:19:20.009Z,6.86
2023-05-02T06:21:46.612Z,7.03
2023-05-02T06:24:12.798Z,7.18
2023-05-02T06:26:38.887Z,7.28
2023-05-02T06:29:04.980Z,7.33
2023-05-02T06:31:31.120Z,7.42
2023-05-02T06:33:57.325Z,7.54
2023-05-02T06:36:27.003Z,7.65
2023-05-02T06:38:53.268Z,7.78
2023-05-02T06:41:20.083Z,7.92
2023-05-02T06:43:46.311Z,8.08
2023-05-02T06:46:12.502Z,8.23
2023-05-02T06:48:38.650Z,8.33
2023-05-02T06:51:04.789Z,8.45
2023-05-02T06:53:32.924Z,8.57
2023-05-02T06:55:59.409Z,8.65
2023-05-02T06:58:25.696Z,8.78
2023-05-02T07:00:52.087Z,8.95
2023-05-02T07:03:18.189Z,9.13
2023-05-02T07:05:44.286Z,9.27
2023-05-02T07:08:10.950Z,9.41
2023-05-02T07:10:37.125Z,9.52
2023-05-02T07:13:03.258Z,9.63
2023-05-02T07:15:29.499Z,9.73
2023-05-02T07:17:55.657Z,9.86
2023-05-02T07:20:21.873Z,9.96
2023-05-02T07:22:48.177Z,10.09
2023-05-02T07:25:14.260Z,10.21
2023-05-02T07:27:40.569Z,10.32
2023-05-02T07:30:06.758Z,10.45
2023-05-02T07:32:33.032Z,10.56
2023-05-02T07:34:59.340Z,10.68
2023-05-02T07:37:25.616Z,10.85
2023-05-02T07:39:51.760Z,10.97
2023-05-02T07:42:17.867Z,11.07
2023-05-02T07:44:44.171Z,11.18
2023-05-02T07:47:10.266Z,11.30
2023-05-02T07:49:36.357Z,11.44
2023-05-02T07:52:02.609Z,11.55
2023-05-02T07:54:29.222Z,11.66
2023-05-02T07:56:58.010Z,11.80
2023-05-02T07:59:24.161Z,11.94
2023-05-02T08:01:50.379Z,12.04
2023-05-02T08:04:16.834Z,12.13
2023-05-02T08:06:43.135Z,12.24
2023-05-02T08:09:09.264Z,12.37
2023-05-02T08:11:35.435Z,12.48
2023-05-02T08:14:01.677Z,12.58
2023-05-02T08:16:27.882Z,12.70
2023-05-02T08:18:54.252Z,12.85
2023-05-02T08:21:20.508Z,13.00
2023-05-02T08:23:46.610Z,13.14
2023-05-02T08:26:12.751Z,13.23
2023-05-02T08:28:38.860Z,13.37
2023-05-02T08:31:05.113Z,13.52
2023-05-02T08:33:31.429Z,13.70
2023-05-02T08:35:57.583Z,13.85
2023-05-02T08:38:23.699Z,13.96
2023-05-02T08:40:49.791Z,14.15
2023-05-02T08:43:15.966Z,14.33
2023-05-02T08:45:42.235Z,14.46
2023-05-02T08:48:09.790Z,14.63
2023-05-02T08:50:36.209Z,14.76
2023-05-02T08:53:02.358Z,14.85
2023-05-02T08:55:28.840Z,14.97
2023-05-02T08:57:55.055Z,15.15
2023-05-02T09:00:21.118Z,15.27
2023-05-02T09:02:47.393Z,15.44
2023-05-02T09:05:15.819Z,15.58
2023-05-02T09:07:41.908Z,15.68
2023-05-02T09:10:08.016Z,15.84
2023-05-02T09:12:34.128Z,16.00
2023-05-02T09:15:00.538Z,16.14
2023-05-02T09:17:26.870Z,16.22
2023-05-02T09:19:53.043Z,16.39
2023-05-02T09:22:19.138Z,16.48
2023-05-02T09:24:45.265Z,16.59
2023-05-02T09:27:12.622Z,16.63
2023-05-02T09:29:40.150Z,16.63
2023-05-02T09:32:06.294Z,16.63
2023-05-02T09:34:33.065Z,16.64
2023-05-02T09:36:59.145Z,16.70
2023-05-02T09:39:26.143Z,16.80
2023-05-02T09:41:52.661Z,16.83
2023-05-02T09:44:18.793Z,16.92
2023-05-02T09:46:45.136Z,17.06
2023-05-02T09:49:11.657Z,17.23
2023-05-02T09:51:37.780Z,17.27
2023-05-02T09:54:03.894Z,17.32
2023-05-02T09:56:30.079Z,17.38
2023-05-02T09:58:56.172Z,17.47
2023-05-02T10:01:22.355Z,17.58
2023-05-02T10:03:48.541Z,17.75
2023-05-02T10:06:14.854Z,17.92
2023-05-02T10:08:40.965Z,18.04
2023-05-02T10:11:07.099Z,18.11
2023-05-02T10:13:34.131Z,18.09
2023-05-02T10:16:00.778Z,18.08
2023-05-02T10:18:27.399Z,18.09
2023-05-02T10:20:53.653Z,18.10
2023-05-02T10:23:19.856Z,18.08
2023-05-02T10:25:46.025Z,18.09
2023-05-02T10:28:12.289Z,18.08
2023-05-02T10:30:38.400Z,18.08
2023-05-02T10:33:04.559Z,18.07
2023-05-02T10:35:32.276Z,18.04
2023-05-02T10:37:58.649Z,18.00
2023-05-02T10:40:25.257Z,17.97
2023-05-02T10:42:52.344Z,17.94
2023-05-02T10:45:18.408Z,17.88
2023-05-02T10:47:44.972Z,17.78
2023-05-02T10:50:11.148Z,17.70
2023-05-02T10:52:40.866Z,17.61
2023-05-02T10:55:06.972Z,17.51
2023-05-02T10:57:33.073Z,17.31
2023-05-02T10:59:59.217Z,16.99
2023-05-02T11:02:27.532Z,16.78
2023-05-02T11:04:53.778Z,16.63
2023-05-02T11:07:20.335Z,16.49
2023-05-02T11:09:46.462Z,16.39
2023-05-02T11:12:12.584Z,16.32
2023-05-02T11:14:39.089Z,16.30
2023-05-02T11:17:05.687Z,16.30
2023-05-02T11:19:31.896Z,16.33
2023-05-02T11:21:57.990Z,16.32
2023-05-02T11:24:24.162Z,16.29
2023-05-02T11:26:50.390Z,16.33
2023-05-02T11:29:16.501Z,16.38
2023-05-02T11:31:43.113Z,16.43
2023-05-02T11:34:10.041Z,16.49
2023-05-02T11:36:36.195Z,16.59
2023-05-02T11:39:02.876Z,16.71
2023-05-02T11:41:29.004Z,16.81
2023-05-02T11:43:55.056Z,16.90
2023-05-02T11:46:21.600Z,17.02
2023-05-02T11:48:47.892Z,17.22
2023-05-02T11:51:14.063Z,17.36
2023-05-02T11:53:40.818Z,17.46
2023-05-02T11:56:08.227Z,17.60
2023-05-02T11:58:34.602Z,17.74
2023-05-02T12:01:00.812Z,17.88
2023-05-02T12:03:27.127Z,17.99
2023-05-02T12:05:53.447Z,18.13
2023-05-02T12:08:20.003Z,18.17
2023-05-02T12:10:46.061Z,18.08
2023-05-02T12:13:12.169Z,17.99
2023-05-02T12:15:38.295Z,17.95
2023-05-02T12:18:04.635Z,18.00
2023-05-02T12:20:31.219Z,18.19
2023-05-02T12:22:57.359Z,18.33
2023-05-02T12:25:23.610Z,18.47
2023-05-02T12:27:49.985Z,18.58
2023-05-02T12:30:16.331Z,18.65
2023-05-02T12:32:44.868Z,18.72
2023-05-02T12:35:13.741Z,18.81
2023-05-02T12:37:39.991Z,18.91
2023-05-02T12:40:06.431Z,18.92
2023-05-02T12:42:33.836Z,18.93
2023-05-02T12:45:00.395Z,18.96
2023-05-02T12:47:26.670Z,19.01
2023-05-02T12:49:52.994Z,19.00
2023-05-02T12:52:19.149Z,19.00
2023-05-02T12:54:46.521Z,19.03
2023-05-02T12:57:12.946Z,19.07
2023-05-02T12:59:40.313Z,19.07
2023-05-02T13:02:06.514Z,19.09
2023-05-02T13:04:32.851Z,19.08
2023-05-02T13:06:59.037Z,19.00
2023-05-02T13:09:25.365Z,18.97
2023-05-02T13:11:53.380Z,18.98
2023-05-02T13:14:19.607Z,18.98
2023-05-02T13:16:45.835Z,18.97
2023-05-02T13:19:12.143Z,19.00
2023-05-02T13:21:38.259Z,19.04
2023-05-02T13:24:04.460Z,19.07
2023-05-02T13:26:30.544Z,19.03
2023-05-02T13:28:56.697Z,18.97
2023-05-02T13:31:22.848Z,18.95
2023-05-02T13:33:48.974Z,18.96
2023-05-02T13:36:15.329Z,18.95
2023-05-02T13:38:41.470Z,18.88
2023-05-02T13:41:07.623Z,18.81
2023-05-02T13:43:33.891Z,18.80
2023-05-02T13:46:00.088Z,18.76
2023-05-02T13:48:26.232Z,18.64
2023-05-02T13:50:52.598Z,18.39
2023-05-02T13:53:18.747Z,18.16
2023-05-02T13:55:45.067Z,18.00
2023-05-02T13:58:11.262Z,17.93
2023-05-02T14:00:37.434Z,17.87
2023-05-02T14:03:04.471Z,17.87
2023-05-02T14:05:30.668Z,17.93
2023-05-02T14:07:56.733Z,17.99
2023-05-02T14:10:22.843Z,18.04
2023-05-02T14:12:50.324Z,18.07
2023-05-02T14:15:16.625Z,18.07
2023-05-02T14:17:42.860Z,18.05
2023-05-02T14:20:09.850Z,18.01
2023-05-02T14:22:35.940Z,17.97
2023-05-02T14:25:02.184Z,17.97
2023-05-02T14:27:28.340Z,17.98
2023-05-02T14:29:54.615Z,18.00
2023-05-02T14:32:21.101Z,18.04
2023-05-02T14:34:47.234Z,18.06
2023-05-02T14:37:13.322Z,18.06
2023-05-02T14:39:41.572Z,18.04
2023-05-02T14:42:07.735Z,18.02
2023-05-02T14:44:33.981Z,18.03
2023-05-02T14:47:00.260Z,18.03
2023-05-02T14:49:26.413Z,18.05
2023-05-02T14:51:52.718Z,18.09
2023-05-02T14:54:19.594Z,18.09
2023-05-02T14:56:46.534Z,18.08
2023-05-02T14:59:12.730Z,18.07
2023-05-02T15:01:38.927Z,18.05
2023-05-02T15:04:07.788Z,18.03
2023-05-02T15:06:35.244Z,17.98
2023-05-02T15:09:01.978Z,17.96
2023-05-02T15:11:28.151Z,17.96
2023-05-02T15:13:54.824Z,17.93
2023-05-02T15:16:22.687Z,17.91
2023-05-02T15:18:49.158Z,17.87
2023-05-02T15:21:15.264Z,17.82
2023-05-02T15:23:41.656Z,17.78
2023-05-02T15:26:07.955Z,17.73
2023-05-02T15:28:34.041Z,17.71
2023-05-02T15:31:00.141Z,17.66
2023-05-02T15:33:26.559Z,17.65
2023-05-02T15:35:53.224Z,17.63
2023-05-02T15:38:19.383Z,17.58
2023-05-02T15:40:46.799Z,17.43
2023-05-02T15:43:12.876Z,17.08
2023-05-02T15:45:39.296Z,16.57
2023-05-02T15:48:05.441Z,16.10
2023-05-02T15:50:31.522Z,15.74
2023-05-02T15:52:57.806Z,15.45
2023-05-02T15:55:23.986Z,15.20
2023-05-02T15:57:51.275Z,15.02
2023-05-02T16:00:17.465Z,14.90
2023-05-02T16:02:43.957Z,14.79
2023-05-02T16:05:10.107Z,14.65
2023-05-02T16:07:36.335Z,14.50
2023-05-02T16:10:03.077Z,14.36
2023-05-02T16:12:29.510Z,14.15
2023-05-02T16:14:55.642Z,13.99
2023-05-02T16:17:21.972Z,13.85
2023-05-02T16:19:48.032Z,13.72
2023-05-02T16:22:14.181Z,13.63
2023-05-02T16:24:40.661Z,13.62
2023-05-02T16:27:06.876Z,13.62
2023-05-02T16:29:32.954Z,13.59
2023-05-02T16:31:59.247Z,13.55
2023-05-02T16:34:25.388Z,13.48
2023-05-02T16:36:52.368Z,13.44
2023-05-02T16:39:18.537Z,13.43
2023-05-02T16:41:44.624Z,13.43
2023-05-02T16:44:10.892Z,13.39
2023-05-02T16:46:37.008Z,13.36
2023-05-02T16:49:03.237Z,13.35
2023-05-02T16:51:31.032Z,13.33
2023-05-02T16:53:57.464Z,13.29
2023-05-02T16:56:23.580Z,13.27
2023-05-02T16:58:49.687Z,13.24
2023-05-02T17:01:16.648Z,13.20
2023-05-02T17:03:42.806Z,13.16
2023-05-02T17:06:09.145Z,13.14
2023-05-02T17:08:35.913Z,13.12
2023-05-02T17:11:02.061Z,13.09
2023-05-02T17:13:28.639Z,13.05
2023-05-02T17:15:55.364Z,13.03
2023-05-02T17:18:21.578Z,13.05
2023-05-02T17:20:48.291Z,13.06
2023-05-02T17:23:14.645Z,13.06
2023-05-02T17:25:41.047Z,13.08
2023-05-02T17:28:07.155Z,13.07
2023-05-02T17:30:33.315Z,13.05
2023-05-02T17:32:59.831Z,13.05
2023-05-02T17:35:26.063Z,13.05
2023-05-02T17:37:52.240Z,13.02
2023-05-02T17:40:18.328Z,12.97
2023-05-02T17:42:48.118Z,12.89
2023-05-02T17:45:14.395Z,12.76
2023-05-02T17:47:41.461Z,12.65
2023-05-02T17:50:08.074Z,12.54
2023-05-02T17:52:34.872Z,12.46
2023-05-02T17:55:01.374Z,12.40
2023-05-02T17:57:27.519Z,12.35
2023-05-02T17:59:57.738Z,12.30
2023-05-02T18:02:23.926Z,12.29
2023-05-02T18:04:50.196Z,12.23
2023-05-02T18:07:22.891Z,12.21
2023-05-02T18:09:49.244Z,12.20
2023-05-02T18:12:15.397Z,12.16
2023-05-02T18:14:41.797Z,12.11
2023-05-02T18:17:09.865Z,12.07
2023-05-02T18:19:36.243Z,12.03
2023-05-02T18:22:02.903Z,12.00
2023-05-02T18:24:29.022Z,11.96
2023-05-02T18:26:55.130Z,11.93
2023-05-02T18:29:21.226Z,11.87
2023-05-02T18:31:51.669Z,11.82
2023-05-02T18:34:17.818Z,11.79
2023-05-02T18:36:44.564Z,11.75
2023-05-02T18:39:10.650Z,11.69
2023-05-02T18:41:38.590Z,11.63
2023-05-02T18:44:06.186Z,11.54
2023-05-02T18:46:32.467Z,11.49
2023-05-02T18:48:58.640Z,11.46
2023-05-02T18:51:24.741Z,11.43
2023-05-02T18:53:50.857Z,11.43
2023-05-02T18:56:17.060Z,11.40
2023-05-02T18:58:43.549Z,11.38
2023-05-02T19:01:09.684Z,11.32
2023-05-02T19:03:35.860Z,11.27
2023-05-02T19:06:03.639Z,11.23
2023-05-02T19:08:29.725Z,11.23
2023-05-02T19:10:55.819Z,11.27
2023-05-02T19:13:21.921Z,11.29
2023-05-02T19:15:48.014Z,11.26
2023-05-02T19:18:14.463Z,11.21
2023-05-02T19:20:40.834Z,11.19
2023-05-02T19:25:41.241Z,11.12
2023-05-02T19:28:07.354Z,11.07
2023-05-02T19:30:33.530Z,11.03
2023-05-02T19:32:59.777Z,11.02
2023-05-02T19:35:27.894Z,10.98
2023-05-02T19:37:54.320Z,10.97
2023-05-02T19:40:20.404Z,10.92
2023-05-02T19:42:46.507Z,10.88
2023-05-02T19:45:13.162Z,10.84
2023-05-02T19:47:42.968Z,10.85
2023-05-02T19:50:09.204Z,10.85
2023-05-02T19:52:38.315Z,10.81
2023-05-02T19:55:04.730Z,10.76
2023-05-02T19:57:31.155Z,10.72
2023-05-02T19:59:57.562Z,10.68
2023-05-02T20:02:23.785Z,10.65
2023-05-02T20:04:50.043Z,10.62
2023-05-02T20:07:16.189Z,10.65
2023-05-02T20:09:42.281Z,10.66
2023-05-02T20:12:08.545Z,10.63
2023-05-02T20:14:34.686Z,10.61
2023-05-02T20:17:02.190Z,10.56
2023-05-02T20:19:31.647Z,10.49
2023-05-02T20:21:57.739Z,10.49
2023-05-02T20:24:23.804Z,10.48
2023-05-02T20:26:49.942Z,10.47
2023-05-02T20:29:16.030Z,10.48
2023-05-02T20:31:42.624Z,10.48
2023-05-02T20:34:08.882Z,10.45
2023-05-02T20:36:35.061Z,10.44
2023-05-02T20:39:04.016Z,10.43
2023-05-02T20:41:31.608Z,10.43
2023-05-02T20:43:59.309Z,10.43
2023-05-02T20:46:28.516Z,10.44
2023-05-02T20:48:55.146Z,10.49
2023-05-02T20:51:21.233Z,10.51
2023-05-02T20:53:48.279Z,10.53
2023-05-02T20:56:14.404Z,10.52
2023-05-02T20:58:40.671Z,10.53
2023-05-02T21:01:06.864Z,10.54
2023-05-02T21:03:35.873Z,10.53
2023-05-02T21:06:02.075Z,10.53
2023-05-02T21:08:28.251Z,10.52
2023-05-02T21:10:54.463Z,10.53
2023-05-02T21:13:20.542Z,10.56
2023-05-02T21:15:46.726Z,10.60
2023-05-02T21:18:12.907Z,10.61
2023-05-02T21:20:40.705Z,10.63
2023-05-02T21:23:06.800Z,10.63
2023-05-02T21:25:32.952Z,10.66
2023-05-02T21:27:59.046Z,10.70
2023-05-02T21:30:25.246Z,10.69
2023-05-02T21:32:51.343Z,10.67
2023-05-02T21:35:17.441Z,10.65
2023-05-02T21:37:43.748Z,10.63
2023-05-02T21:40:09.888Z,10.63
2023-05-02T21:42:36.013Z,10.66
2023-05-02T21:45:02.104Z,10.66
2023-05-02T21:47:28.332Z,10.65
2023-05-02T21:49:54.677Z,10.60
2023-05-02T21:52:20.779Z,10.53
2023-05-02T21:54:51.641Z,10.52
2023-05-02T21:57:18.356Z,10.46
2023-05-02T21:59:44.617Z,10.44
2023-05-02T22:02:11.402Z,10.41
2023-05-02T22:04:37.515Z,10.41
2023-05-02T22:07:04.234Z,10.38
2023-05-02T22:09:33.208Z,10.34
2023-05-02T22:11:59.647Z,10.29
2023-05-02T22:14:33.912Z,10.25
2023-05-02T22:17:07.580Z,10.23
2023-05-02T22:19:33.675Z,10.22
2023-05-02T22:22:01.012Z,10.23
2023-05-02T22:24:27.974Z,10.25
2023-05-02T22:26:55.096Z,10.26
2023-05-02T22:29:21.789Z,10.28
2023-05-02T22:31:49.309Z,10.27
2023-05-02T22:34:15.458Z,10.26
2023-05-02T22:36:41.553Z,10.25
2023-05-02T22:39:12.372Z,10.25
2023-05-02T22:41:38.715Z,10.21
2023-05-02T22:44:04.874Z,10.22
2023-05-02T22:46:31.081Z,10.21
2023-05-02T22:48:57.178Z,10.23
2023-05-02T22:51:23.354Z,10.25
2023-05-02T22:53:49.474Z,10.23
2023-05-02T22:56:15.679Z,10.21
2023-05-02T22:58:41.763Z,10.15
2023-05-02T23:01:08.121Z,10.08
2023-05-02T23:03:34.343Z,10.00
2023-05-02T23:06:00.593Z,9.96
2023-05-02T23:08:26.807Z,9.92
2023-05-02T23:10:52.927Z,9.88
2023-05-02T23:13:19.111Z,9.84
2023-05-02T23:15:45.305Z,9.81
2023-05-02T23:18:11.455Z,9.81
2023-05-02T23:20:37.591Z,9.78
2023-05-02T23:23:03.707Z,9.75
2023-05-02T23:25:29.790Z,9.71
2023-05-02T23:27:55.911Z,9.71
2023-05-02T23:30:22.052Z,9.72
2023-05-02T23:32:48.423Z,9.74
2023-05-02T23:35:14.935Z,9.72
2023-05-02T23:37:41.051Z,9.73
2023-05-02T23:40:08.586Z,9.73
2023-05-02T23:42:37.145Z,9.75
2023-05-02T23:45:03.336Z,9.78
2023-05-02T23:47:29.466Z,9.79
2023-05-02T23:49:55.642Z,9.81
2023-05-02T23:52:21.784Z,9.82
2023-05-02T23:54:47.924Z,9.84
2023-05-02T23:57:14.044Z,9.84
2023-05-02T23:59:43.212Z,9.82
